Data for 03/28/2016

Time Sea-Level Adjusted Pressure Absolute Pressure Temperature Relative Humidity Dew Point   
(mb) (inHg) (mb) (inHg) (C) (F) (%) (C) (F)
00:05 1013 29.91 842 24.86 0.1 32.1 94 -0.8 30.5
00:10 1013 29.91 842 24.86 0.1 32.1 94 -0.9 30.5
00:15 1013 29.91 842 24.86 0.1 32.1 94 -0.8 30.5
00:20 1013 29.91 842 24.86 0.1 32.2 93 -0.8 30.5
00:25 1013 29.91 842 24.86 0.1 32.2 93 -0.8 30.5
00:30 1013 29.91 842 24.86 0.1 32.2 93 -0.8 30.5
00:35 1013 29.91 842 24.86 0.1 32.2 93 -0.8 30.5
00:40 1013 29.91 842 24.86 0.2 32.3 94 -0.7 30.7
00:45 1013 29.91 842 24.86 0.2 32.3 94 -0.8 30.6
00:50 1013 29.91 842 24.86 0.1 32.3 94 -0.8 30.6
00:55 1013 29.91 842 24.86 0.1 32.3 94 -0.8 30.6
01:00 1013 29.91 842 24.86 0.1 32.2 94 -0.8 30.6
01:05 1013 29.91 842 24.86 0.1 32.2 94 -0.8 30.6
01:10 1013 29.91 842 24.86 0.1 32.2 93 -0.8 30.5
01:15 1013 29.91 842 24.86 0.1 32.2 93 -0.8 30.6
01:20 1013 29.91 842 24.86 0.1 32.2 93 -0.8 30.5
01:25 1013 29.91 842 24.86 0.1 32.2 94 -0.8 30.5
01:30 1013 29.91 842 24.86 0.1 32.1 94 -0.9 30.4
01:35 1013 29.91 842 24.86 0 32.1 94 -0.9 30.4
01:40 1013 29.91 842 24.86 -0 32 93 -1 30.3
01:45 1013 29.91 842 24.86 -0.1 31.9 93 -1 30.1
01:50 1013 29.91 842 24.86 -0.1 31.8 93 -1.2 29.8
01:55 1013 29.91 842 24.86 -0.2 31.7 92 -1.3 29.7
02:00 1013 29.91 842 24.86 -0.2 31.7 92 -1.3 29.7
02:05 1013 29.91 842 24.86 -0.2 31.6 92 -1.3 29.6
02:10 1013 29.91 842 24.86 -0.3 31.5 92 -1.5 29.4
02:15 1013 29.91 842 24.86 -0.3 31.4 92 -1.5 29.3
02:20 1013 29.91 842 24.86 -0.4 31.3 92 -1.5 29.3
02:25 1013 29.91 842 24.86 -0.5 31.2 92 -1.6 29.2
02:30 1013 29.91 842 24.86 -0.5 31.1 92 -1.6 29.2
02:35 1013 29.91 842 24.86 -0.5 31 92 -1.6 29.1
02:40 1013 29.91 842 24.86 -0.6 30.9 92 -1.7 28.9
02:45 1013 29.91 842 24.86 -0.6 31 92 -1.7 29
02:50 1013 29.91 842 24.86 -0.6 30.9 92 -1.8 28.8
02:55 1013 29.91 842 24.86 -0.6 30.8 92 -1.8 28.8
03:00 1013 29.91 842 24.86 -0.7 30.7 92 -1.9 28.6
03:05 1013 29.91 842 24.86 -0.8 30.6 92 -2 28.4
03:10 1013 29.91 842 24.86 -0.9 30.4 91 -2.1 28.2
03:15 1013 29.91 842 24.86 -1 30.2 91 -2.3 27.8
03:20 1013 29.91 842 24.86 -1 30.2 90 -2.5 27.5
03:25 1013 29.91 842 24.86 -0.9 30.4 88 -2.6 27.2
03:30 1013 29.91 842 24.86 -0.8 30.5 88 -2.6 27.3
03:35 1013 29.91 842 24.86 -0.8 30.5 88 -2.5 27.5
03:40 1013 29.91 842 24.86 -0.7 30.8 89 -2.3 27.9
03:45 1013 29.91 842 24.86 -0.7 30.8 90 -2.1 28.3
03:50 1013 29.91 842 24.86 -0.9 30.4 91 -2.1 28.2
03:55 1013 29.91 842 24.86 -1 30.2 92 -2.1 28.2
04:00 1013 29.91 842 24.86 -1 30.2 93 -2 28.4
04:05 1013 29.91 842 24.86 -0.9 30.3 93 -2 28.5
04:10 1013 29.91 842 24.86 -0.9 30.3 93 -2 28.4
04:15 1013 29.91 842 24.86 -1 30.3 93 -2 28.3
04:20 1013 29.91 842 24.86 -1 30.2 93 -2 28.4
04:25 1013 29.91 842 24.86 -1 30.3 92 -2 28.3
04:30 1013 29.91 842 24.86 -1 30.3 93 -2 28.4
04:35 1013 29.91 842 24.86 -1 30.2 93 -2 28.3
04:40 1013 29.91 842 24.86 -1 30.2 92 -2.1 28.2
04:45 1013 29.91 842 24.86 -1 30.2 92 -2.1 28.2
04:50 1013 29.91 842 24.86 -1 30.2 92 -2.1 28.2
04:55 1013 29.91 842 24.86 -1 30.2 92 -2.1 28.3
05:00 1013 29.91 842 24.86 -1 30.3 92 -2.1 28.2
05:05 1013 29.91 842 24.86 -1 30.2 92 -2.2 28.1
05:10 1013 29.91 842 24.86 -1 30.3 92 -2.2 28.1
05:15 1013 29.91 842 24.86 -1 30.2 92 -2.2 28.1
05:20 1013 29.91 842 24.86 -1 30.2 91 -2.2 28
05:25 1013 29.91 842 24.86 -1 30.3 91 -2.3 27.9
05:30 1013 29.91 842 24.86 -1 30.3 91 -2.3 27.9
05:35 1013 29.91 842 24.86 -0.9 30.4 90 -2.4 27.8
05:40 1013 29.91 842 24.86 -0.9 30.4 89 -2.5 27.5
05:45 1013 29.91 842 24.86 -0.8 30.5 89 -2.5 27.5
05:50 1013 29.91 842 24.86 -0.8 30.6 88 -2.4 27.6
05:55 1013 29.91 842 24.86 -0.8 30.6 88 -2.6 27.3
06:00 1013 29.91 842 24.86 -0.7 30.7 87 -2.7 27.1
06:05 1013 29.91 842 24.86 -0.7 30.8 86 -2.7 27.2
06:10 1013 29.91 842 24.86 -0.6 30.9 86 -2.6 27.3
06:15 1013 29.91 842 24.86 -0.6 30.9 85 -2.8 27
06:20 1013 29.91 842 24.86 -0.6 30.9 86 -2.7 27.1
06:25 1013 29.91 842 24.86 -0.6 31 85 -2.8 26.9
06:30 1013 29.91 842 24.86 -0.5 31 84 -2.9 26.9
06:35 1013 29.91 842 24.86 -0.7 30.7 86 -2.8 26.9
06:40 1013 29.91 842 24.86 -0.9 30.4 86 -3 26.6
06:45 1013 29.91 842 24.86 -0.9 30.4 85 -3.2 26.3
06:50 1013 29.91 842 24.86 -1.1 30.1 87 -3 26.6
06:55 1013 29.91 842 24.86 -1.1 30.1 88 -2.9 26.9
07:00 1013 29.91 842 24.86 -1.1 30.1 88 -2.8 27
07:05 1013 29.91 842 24.86 -1.1 30.1 88 -2.8 27
07:10 1013 29.91 842 24.86 -1 30.2 87 -2.9 26.7
07:15 1013 29.91 842 24.86 -1.1 30.1 86 -3.1 26.4
07:20 1013 29.91 842 24.86 -1.1 30.1 86 -3.1 26.4
07:25 1013 29.91 842 24.86 -1.1 30.1 85 -3.2 26.2
07:30 1013 29.91 842 24.86 -1 30.1 84 -3.3 26
07:35 1013 29.91 842 24.86 -1 30.3 85 -3.1 26.4
07:40 1013 29.91 842 24.86 -0.8 30.6 84 -3.1 26.4
07:45 1013 29.91 842 24.86 -0.9 30.3 84 -3.3 26.1
07:50 1013 29.91 842 24.86 -1 30.2 86 -3 26.5
07:55 1013 29.91 842 24.86 -0.9 30.3 86 -3.1 26.5
08:00 1013 29.91 842 24.86 -0.9 30.3 86 -2.9 26.7
08:05 1013 29.91 842 24.86 -0.8 30.5 87 -2.7 27.1
08:10 1013 29.91 842 24.86 -0.6 30.9 86 -2.6 27.3
08:15 1013 29.91 843 24.89 -0.5 31 84 -2.8 26.9
08:20 1013 29.91 843 24.89 -0.6 31 86 -2.7 27.2
08:25 1013 29.91 843 24.89 -0.7 30.8 87 -2.5 27.4
08:30 1013 29.91 843 24.89 -0.8 30.5 88 -2.6 27.4
08:35 1013 29.91 843 24.89 -0.9 30.3 88 -2.6 27.3
08:40 1014 29.94 843 24.89 -1 30.2 88 -2.7 27.2
08:45 1014 29.94 843 24.89 -1.2 29.8 88 -3 26.6
08:50 1014 29.94 843 24.89 -1.2 29.9 87 -3.1 26.4
08:55 1014 29.94 843 24.89 -0.9 30.4 86 -2.9 26.7
09:00 1014 29.94 843 24.89 -0.6 31 84 -3 26.7
09:05 1014 29.94 843 24.89 -0.4 31.3 84 -2.8 26.9
09:10 1014 29.94 843 24.89 -0.7 30.7 84 -3.1 26.5
09:15 1014 29.94 843 24.89 -0.8 30.6 85 -3.1 26.5
09:20 1014 29.94 843 24.89 -0.5 31.2 81 -3.3 26
09:25 1014 29.94 843 24.89 -0.5 31.1 81 -3.3 26
09:30 1014 29.94 843 24.89 -0.6 30.8 80 -3.6 25.5
09:35 1014 29.94 843 24.89 -0.9 30.5 82 -3.5 25.7
09:40 1014 29.94 843 24.89 -1 30.2 80 -3.9 24.9
09:45 1014 29.94 843 24.89 -1.2 29.9 81 -4 24.7
09:50 1014 29.94 843 24.89 -1.3 29.7 81 -4.2 24.4
09:55 1014 29.94 843 24.89 -1.3 29.7 82 -4 24.8
10:00 1014 29.94 843 24.89 -1.2 29.8 82 -3.9 24.9
10:05 1014 29.94 843 24.89 -1.1 30.1 83 -3.6 25.6
10:10 1014 29.94 843 24.89 -0.6 30.9 79 -3.8 25.2
10:15 1014 29.94 843 24.89 -0.6 30.9 80 -3.6 25.6
10:20 1014 29.94 843 24.89 -0.3 31.4 79 -3.6 25.5
10:25 1014 29.94 843 24.89 -0.4 31.3 78 -3.7 25.3
10:30 1014 29.94 843 24.89 -0.5 31 78 -3.9 25
10:35 1014 29.94 843 24.89 -0.4 31.3 78 -3.8 25.2
10:40 1014 29.94 843 24.89 -0.1 31.8 75 -4 24.8
10:45 1014 29.94 843 24.89 0.3 32.5 72 -4.1 24.6
10:50 1014 29.94 843 24.89 0.1 32.2 72 -4.3 24.3
10:55 1014 29.94 843 24.89 -0.1 31.9 72 -4.6 23.8
11:00 1014 29.94 843 24.89 -0.1 31.8 72 -4.6 23.7
11:05 1014 29.94 843 24.89 -0.3 31.5 72 -4.7 23.5
11:10 1014 29.94 843 24.89 0.4 32.8 69 -4.6 23.8
11:15 1014 29.94 843 24.89 0.8 33.4 69 -4.2 24.4
11:20 1014 29.94 843 24.89 0.7 33.3 67 -4.7 23.6
11:25 1014 29.94 843 24.89 1.2 34.1 65 -4.8 23.4
11:30 1014 29.94 843 24.89 1.8 35.3 63 -4.5 23.8
11:35 1014 29.94 843 24.89 2.2 36 59 -5.1 22.9
11:40 1014 29.94 843 24.89 2.6 36.8 57 -5 23
11:45 1014 29.94 843 24.89 2.6 36.8 59 -4.7 23.6
11:50 1014 29.94 843 24.89 3.1 37.6 55 -5 23
11:55 1014 29.94 843 24.89 3.4 38.1 54 -5 23.1
12:00 1014 29.94 843 24.89 3.1 37.6 58 -4.4 24
12:05 1014 29.94 843 24.89 3.5 38.3 53 -5.2 22.7
12:10 1014 29.94 843 24.89 3.4 38.1 53 -5.3 22.4
12:15 1014 29.94 843 24.89 3.5 38.4 54 -4.9 23.2
12:20 1014 29.94 843 24.89 4 39.3 52 -4.8 23.3
12:25 1014 29.94 843 24.89 3 37.4 55 -5.1 22.8
12:30 1014 29.94 843 24.89 3 37.4 56 -4.9 23.2
12:35 1014 29.94 843 24.89 2.2 36 58 -5.3 22.5
12:40 1014 29.94 843 24.89 2.9 37.2 55 -5.2 22.7
12:45 1014 29.94 843 24.89 4.1 39.4 52 -4.7 23.5
12:50 1014 29.94 843 24.89 4.1 39.3 52 -4.8 23.3
12:55 1014 29.94 843 24.89 3.4 38.1 51 -5.9 21.5
13:00 1014 29.94 843 24.89 2.2 36 54 -6.1 21
13:05 1014 29.94 843 24.89 2 35.6 55 -6.1 21.1
13:10 1014 29.94 843 24.89 2.5 36.4 54 -6 21.2
13:15 1014 29.94 843 24.89 3.7 38.7 50 -5.7 21.7
13:20 1014 29.94 843 24.89 3.8 38.8 49 -6.1 21
13:25 1014 29.94 843 24.89 3.7 38.7 48 -6.2 20.8
13:30 1014 29.94 843 24.89 3.3 38 50 -6.2 20.8
13:35 1014 29.94 843 24.89 3.7 38.7 47 -6.5 20.3
13:40 1014 29.94 843 24.89 4.1 39.3 45 -6.7 19.9
13:45 1014 29.94 843 24.89 3 37.4 46 -7.5 18.6
13:50 1014 29.94 843 24.89 3.2 37.8 50 -6.2 20.9
13:55 1014 29.94 843 24.89 3.8 38.9 45 -7.2 19.1
14:00 1014 29.94 843 24.89 4.4 39.9 47 -6 21.1
14:05 1014 29.94 843 24.89 4.7 40.4 45 -6.2 20.9
14:10 1014 29.94 843 24.89 4.2 39.6 51 -5 23
14:15 1014 29.94 843 24.89 4 39.2 51 -5.1 22.8
14:20 1014 29.94 843 24.89 4.2 39.5 51 -5.1 22.8
14:25 1013 29.91 843 24.89 4.1 39.3 49 -5.7 21.8
14:30 1013 29.91 843 24.89 3.3 38 50 -6.1 21.1
14:35 1013 29.91 843 24.89 3.8 38.8 48 -6.2 20.9
14:40 1013 29.91 843 24.89 4.2 39.5 48 -6 21.2
14:45 1013 29.91 843 24.89 3.8 38.8 51 -5.3 22.4
14:50 1013 29.91 843 24.89 3.9 39 48 -6.2 20.9
14:55 1013 29.91 843 24.89 4.3 39.7 48 -5.7 21.7
15:00 1013 29.91 843 24.89 3.9 39.1 44 -7.1 19.2
15:05 1013 29.91 842 24.86 4.1 39.3 44 -7 19.4
15:10 1013 29.91 842 24.86 4.2 39.6 48 -5.8 21.6
15:15 1013 29.91 842 24.86 4.2 39.6 47 -6.2 20.9
15:20 1013 29.91 842 24.86 3.8 38.8 46 -6.9 19.7
15:25 1013 29.91 842 24.86 4.5 40.1 45 -6.4 20.6
15:30 1013 29.91 842 24.86 4.8 40.6 42 -7.2 19.1
15:35 1013 29.91 842 24.86 5.3 41.5 42 -6.5 20.2
15:40 1013 29.91 842 24.86 6 42.8 39 -7 19.3
15:45 1013 29.91 842 24.86 5.7 42.3 40 -7 19.4
15:50 1013 29.91 842 24.86 5.8 42.4 41 -6.5 20.2
15:55 1013 29.91 842 24.86 5.6 42.1 40 -6.8 19.8
16:00 1013 29.91 842 24.86 5.7 42.3 40 -6.8 19.8
16:05 1013 29.91 842 24.86 5.8 42.4 39 -7.1 19.3
16:10 1013 29.91 842 24.86 5.9 42.5 39 -7 19.4
16:15 1013 29.91 842 24.86 5.6 42.1 36 -8.2 17.2
16:20 1013 29.91 842 24.86 5.6 42.1 39 -7.3 18.8
16:25 1013 29.91 842 24.86 6.1 43 38 -7.3 18.9
16:30 1013 29.91 842 24.86 6 42.9 40 -6.6 20.2
16:35 1013 29.91 843 24.89 6.2 43.1 39 -6.7 20
16:40 1013 29.91 843 24.89 6.1 42.9 41 -6.3 20.7
16:45 1013 29.91 843 24.89 6.5 43.7 38 -6.8 19.7
16:50 1013 29.91 843 24.89 5.3 41.5 42 -6.6 20.2
16:55 1013 29.91 843 24.89 4.8 40.7 44 -6.5 20.2
17:00 1013 29.91 843 24.89 4.6 40.3 42 -7.1 19.2
17:05 1013 29.91 843 24.89 4.6 40.3 42 -7.4 18.8
17:10 1013 29.91 843 24.89 4.4 40 44 -6.7 19.9
17:15 1013 29.91 843 24.89 4.2 39.5 45 -6.8 19.7
17:20 1014 29.94 843 24.89 4.2 39.5 43 -7.4 18.7
17:25 1014 29.94 843 24.89 4.3 39.8 43 -7.3 18.8
17:30 1014 29.94 843 24.89 4.2 39.6 43 -7.4 18.7
17:35 1014 29.94 843 24.89 4.1 39.4 43 -7.3 18.8
17:40 1014 29.94 843 24.89 4.1 39.5 45 -6.8 19.7
17:45 1014 29.94 843 24.89 4.2 39.6 45 -6.7 19.9
17:50 1014 29.94 843 24.89 4.2 39.5 44 -7 19.4
17:55 1014 29.94 843 24.89 4.1 39.5 45 -6.7 19.9
18:00 1014 29.94 843 24.89 4.2 39.6 45 -6.6 20.1
18:05 1014 29.94 843 24.89 4 39.2 45 -6.7 19.9
18:10 1014 29.94 843 24.89 3.9 39 44 -7.3 18.8
18:15 1014 29.94 843 24.89 3.9 38.9 44 -7.3 18.9
18:20 1014 29.94 843 24.89 3.8 38.9 45 -7.1 19.1
18:25 1014 29.94 843 24.89 3.9 39 45 -6.9 19.6
18:30 1014 29.94 843 24.89 3.8 38.9 47 -6.5 20.3
18:35 1014 29.94 843 24.89 3.7 38.7 48 -6.2 20.8
18:40 1014 29.94 843 24.89 3.6 38.4 52 -5.4 22.3
18:45 1014 29.94 843 24.89 3.4 38.2 56 -4.5 23.9
18:50 1014 29.94 843 24.89 3.2 37.8 60 -3.8 25.1
18:55 1014 29.94 843 24.89 3 37.4 61 -3.8 25.2
19:00 1014 29.94 843 24.89 3 37.4 62 -3.6 25.5
19:05 1014 29.94 843 24.89 2.8 37.1 64 -3.2 26.2
19:10 1014 29.94 843 24.89 2.7 36.8 65 -3.2 26.3
19:15 1014 29.94 843 24.89 2.6 36.6 65 -3.3 26
19:20 1014 29.94 843 24.89 2.3 36.2 67 -3.2 26.2
19:25 1013 29.91 843 24.89 2.1 35.8 67 -3.3 26
19:30 1013 29.91 843 24.89 2 35.5 68 -3.3 26
19:35 1013 29.91 843 24.89 1.8 35.3 68 -3.5 25.7
19:40 1013 29.91 843 24.89 1.7 35.1 69 -3.3 26
19:45 1014 29.94 843 24.89 1.7 35 70 -3.2 26.2
19:50 1014 29.94 843 24.89 1.6 34.9 69 -3.3 26
19:55 1014 29.94 843 24.89 1.5 34.7 70 -3.4 25.9
20:00 1014 29.94 843 24.89 1.4 34.4 70 -3.6 25.6
20:05 1013 29.91 843 24.89 1.3 34.4 68 -3.9 25
20:10 1013 29.91 843 24.89 1.4 34.5 70 -3.5 25.8
20:15 1014 29.94 843 24.89 1.2 34.2 71 -3.4 25.8
20:20 1013 29.91 843 24.89 1.1 34 72 -3.5 25.8
20:25 1013 29.91 843 24.89 1 33.8 71 -3.6 25.5
20:30 1013 29.91 843 24.89 1.1 33.9 72 -3.5 25.7
20:35 1014 29.94 843 24.89 1 33.8 72 -3.4 25.8
20:40 1013 29.91 843 24.89 1 33.9 69 -4 24.8
20:45 1014 29.94 843 24.89 1.2 34.2 69 -3.8 25.2
20:50 1014 29.94 843 24.89 1.2 34.2 69 -3.8 25.1
20:55 1014 29.94 843 24.89 1.2 34.1 69 -3.9 25
21:00 1014 29.94 843 24.89 1.2 34.1 69 -3.9 25
21:05 1014 29.94 843 24.89 1.2 34.1 69 -3.8 25.1
21:10 1014 29.94 843 24.89 1.1 34 69 -4 24.8
21:15 1014 29.94 843 24.89 1.2 34.2 68 -4.1 24.5
21:20 1014 29.94 843 24.89 1.3 34.3 66 -4.3 24.2
21:25 1014 29.94 843 24.89 1.3 34.3 66 -4.3 24.2
21:30 1014 29.94 843 24.89 1.3 34.4 66 -4.3 24.3
21:35 1014 29.94 843 24.89 1.4 34.4 66 -4.3 24.3
21:40 1014 29.94 843 24.89 1.4 34.5 66 -4.2 24.5
21:45 1014 29.94 843 24.89 1.4 34.5 65 -4.4 24
21:50 1014 29.94 843 24.89 1.5 34.7 65 -4.3 24.3
21:55 1014 29.94 843 24.89 1.5 34.8 64 -4.6 23.8
22:00 1014 29.94 843 24.89 1.7 35.1 63 -4.5 23.9
22:05 1014 29.94 843 24.89 1.7 35 64 -4.3 24.2
22:10 1014 29.94 843 24.89 1.6 34.9 63 -4.6 23.8
22:15 1014 29.94 843 24.89 1.7 35.1 64 -4.3 24.2
22:20 1014 29.94 843 24.89 1.8 35.2 65 -4.2 24.5
22:25 1014 29.94 843 24.89 1.9 35.3 66 -3.9 25
22:30 1014 29.94 843 24.89 2 35.6 66 -3.7 25.4
22:35 1013 29.91 843 24.89 2.1 35.7 68 -3.3 26.1
22:40 1014 29.94 843 24.89 2.2 35.9 68 -3.1 26.5
22:45 1014 29.94 843 24.89 2 35.7 73 -2.3 27.9
22:50 1014 29.94 843 24.89 1.6 34.9 78 -1.9 28.6
22:55 1014 29.94 843 24.89 1.3 34.3 81 -1.7 29
23:00 1014 29.94 843 24.89 1 33.8 82 -1.8 28.8
23:05 1014 29.94 843 24.89 1 33.8 79 -2.3 27.9
23:10 1014 29.94 843 24.89 1.2 34.1 78 -2.2 28.1
23:15 1014 29.94 843 24.89 1.1 34 79 -2.2 28
23:20 1014 29.94 843 24.89 1 33.9 78 -2.3 27.9
23:25 1014 29.94 843 24.89 1 33.8 78 -2.4 27.7
23:30 1014 29.94 843 24.89 0.9 33.7 78 -2.5 27.5
23:35 1014 29.94 843 24.89 0.9 33.6 79 -2.3 27.9
23:40 1014 29.94 843 24.89 0.7 33.3 80 -2.3 27.8
23:45 1014 29.94 843 24.89 0.7 33.2 81 -2.2 28
23:50 1014 29.94 843 24.89 0.6 33.1 81 -2.2 28
23:55 1014 29.94 843 24.89 0.6 33.1 80 -2.4 27.7
24:00 1014 29.94 843 24.89 0.6 33.1 80 -2.5 27.6